Terminal Aerodrome Forecast
Issued by NWS

Home | Current Version | Previous Version | Text Only | Print | Product List | Glossary On
Versions: 1 2 3 4 5 6 7 8 9 10 11 12 13 14 15 16 17 18
000
FTUS44 KCRP 021100
TAFALI
TAF
KALI 021128Z 0212/0312 14004KT P6SM SCT015
      TEMPO 0212/0214 5SM BR BKN015
     FM021500 15010G18KT P6SM VCSH BKN025
     FM021900 13014G20KT P6SM VCTS BKN030CB
      TEMPO 0219/0223 3SM TSRA OVC025CB
     FM030100 12010KT P6SM SCT020 BKN120
     FM030900 13005KT P6SM BKN015 BKN100=

USA.gov is the U.S. government's official web portal to all federal, state and local government web resources and services.